createdAt,value
2018-10-09T00:02:20.987Z,24.37
2018-10-09T00:04:49.261Z,24.50
2018-10-09T00:07:18.353Z,24.67
2018-10-09T00:09:46.637Z,22.07
2018-10-09T00:12:14.857Z,23.77
2018-10-09T00:14:43.100Z,23.80
2018-10-09T00:17:11.420Z,22.77
2018-10-09T00:19:39.631Z,21.90
2018-10-09T00:22:07.819Z,21.43
2018-10-09T00:24:36.025Z,23.13
2018-10-09T00:27:04.209Z,22.97
2018-10-09T00:29:32.534Z,23.60
2018-10-09T00:32:00.717Z,23.23
2018-10-09T00:34:28.905Z,22.57
2018-10-09T00:36:57.152Z,21.73
2018-10-09T00:39:25.506Z,23.13
2018-10-09T00:41:53.900Z,23.23
2018-10-09T00:44:22.108Z,22.37
2018-10-09T00:46:50.386Z,23.03
2018-10-09T00:49:19.217Z,22.77
2018-10-09T00:51:47.996Z,22.43
2018-10-09T00:54:16.228Z,21.97
2018-10-09T00:56:44.496Z,21.63
2018-10-09T00:59:12.677Z,22.47
2018-10-09T01:01:42.071Z,22.47
2018-10-09T01:04:11.218Z,20.87
2018-10-09T01:06:39.517Z,20.97
2018-10-09T01:09:08.041Z,24.17
2018-10-09T01:11:36.157Z,22.33
2018-10-09T01:14:04.380Z,21.03
2018-10-09T01:16:32.635Z,21.03
2018-10-09T01:19:00.915Z,21.83
2018-10-09T01:21:29.093Z,21.13
2018-10-09T01:23:57.285Z,22.33
2018-10-09T01:26:26.069Z,21.43
2018-10-09T01:28:54.385Z,20.00
2018-10-09T01:31:22.754Z,21.20
2018-10-09T01:33:50.970Z,21.80
2018-10-09T01:36:19.173Z,21.80
2018-10-09T01:38:47.373Z,21.33
2018-10-09T01:41:15.650Z,23.30
2018-10-09T01:43:43.997Z,22.30
2018-10-09T01:46:12.229Z,22.93
2018-10-09T01:48:41.208Z,21.50
2018-10-09T01:51:09.593Z,23.07
2018-10-09T01:53:37.909Z,24.77
2018-10-09T01:56:06.121Z,23.10
2018-10-09T01:58:34.303Z,24.30
2018-10-09T02:01:03.461Z,23.47
2018-10-09T02:03:31.681Z,23.27
2018-10-09T02:05:59.909Z,25.20
2018-10-09T02:08:28.117Z,23.83
2018-10-09T02:10:56.933Z,24.70
2018-10-09T02:13:25.297Z,22.77
2018-10-09T02:15:53.489Z,24.23
2018-10-09T02:18:21.701Z,24.93
2018-10-09T02:20:49.935Z,22.20
2018-10-09T02:23:18.537Z,23.07
2018-10-09T02:25:47.458Z,23.13
2018-10-09T02:28:15.673Z,24.33
2018-10-09T02:30:43.897Z,23.47
2018-10-09T02:33:12.082Z,24.63
2018-10-09T02:35:40.387Z,23.07
2018-10-09T02:38:09.786Z,23.80
2018-10-09T02:40:37.957Z,22.70
2018-10-09T02:43:06.153Z,22.37
2018-10-09T02:45:34.397Z,21.80
2018-10-09T02:48:02.921Z,20.90
2018-10-09T02:50:31.159Z,20.97
2018-10-09T02:52:59.346Z,21.17
2018-10-09T02:55:27.565Z,19.30
2018-10-09T02:57:55.992Z,18.87
2018-10-09T03:00:24.571Z,19.63
2018-10-09T03:02:52.764Z,18.83
2018-10-09T03:05:20.990Z,19.17
2018-10-09T03:07:49.217Z,19.80
2018-10-09T03:10:17.417Z,20.63
2018-10-09T03:12:45.648Z,19.80
2018-10-09T03:15:13.861Z,20.00
2018-10-09T03:17:42.173Z,17.80
2018-10-09T03:20:10.766Z,17.93
2018-10-09T03:22:39.027Z,17.17
2018-10-09T03:25:07.253Z,19.40
2018-10-09T03:27:35.467Z,21.30
2018-10-09T03:30:07.105Z,20.13
2018-10-09T03:32:35.326Z,20.40
2018-10-09T03:35:03.810Z,22.13
2018-10-09T03:37:32.578Z,21.57
2018-10-09T03:40:00.797Z,23.07
2018-10-09T03:42:29.295Z,23.70
2018-10-09T03:44:57.479Z,22.87
2018-10-09T03:47:25.863Z,22.73
2018-10-09T03:49:54.097Z,22.93
2018-10-09T03:52:22.347Z,21.57
2018-10-09T03:54:50.559Z,23.93
2018-10-09T03:57:19.305Z,23.17
2018-10-09T03:59:47.686Z,24.53
2018-10-09T04:02:15.877Z,23.27
2018-10-09T04:04:44.401Z,25.30
2018-10-09T04:07:12.621Z,25.43
2018-10-09T04:09:40.982Z,25.40
2018-10-09T04:12:09.339Z,23.47
2018-10-09T04:14:37.522Z,25.07
2018-10-09T04:17:05.746Z,23.47
2018-10-09T04:19:34.191Z,24.43
2018-10-09T04:22:02.478Z,23.90
2018-10-09T04:24:30.684Z,23.73
2018-10-09T04:26:58.925Z,22.03
2018-10-09T04:29:27.157Z,21.83
2018-10-09T04:31:55.351Z,21.57
2018-10-09T04:34:23.558Z,20.73
2018-10-09T04:36:51.750Z,22.47
2018-10-09T04:39:20.199Z,20.17
2018-10-09T04:41:49.342Z,21.07
2018-10-09T04:44:18.349Z,19.60
2018-10-09T04:46:47.277Z,21.33
2018-10-09T04:49:15.464Z,21.30
2018-10-09T04:51:43.665Z,22.77
2018-10-09T04:54:11.879Z,23.07
2018-10-09T04:56:40.193Z,24.03
2018-10-09T04:59:08.386Z,22.70
2018-10-09T05:01:36.599Z,26.13
2018-10-09T05:04:04.985Z,24.57
2018-10-09T05:06:33.717Z,25.93
2018-10-09T05:09:01.982Z,26.17
2018-10-09T05:11:30.197Z,27.47
2018-10-09T05:13:58.858Z,24.63
2018-10-09T05:16:27.025Z,25.90
2018-10-09T05:18:55.318Z,25.67
2018-10-09T05:21:23.731Z,24.97
2018-10-09T05:23:51.953Z,25.67
2018-10-09T05:26:20.157Z,25.03
2018-10-09T05:28:48.666Z,23.50
2018-10-09T05:31:17.048Z,24.80
2018-10-09T05:33:45.460Z,25.47
2018-10-09T05:36:14.060Z,29.10
2018-10-09T05:38:42.521Z,26.70
2018-10-09T05:41:10.887Z,26.20
2018-10-09T05:43:40.275Z,27.10
2018-10-09T05:46:08.433Z,26.57
2018-10-09T05:48:37.830Z,26.00
2018-10-09T05:51:06.253Z,25.67
2018-10-09T05:53:34.499Z,23.77
2018-10-09T05:56:02.814Z,25.30
2018-10-09T05:58:31.019Z,24.33
2018-10-09T06:00:59.202Z,23.87
2018-10-09T06:03:27.444Z,23.70
2018-10-09T06:05:55.887Z,22.67
2018-10-09T06:08:24.846Z,21.33
2018-10-09T06:10:53.193Z,20.80
2018-10-09T06:13:21.401Z,20.27
2018-10-09T06:15:50.593Z,20.57
2018-10-09T06:18:18.870Z,21.23
2018-10-09T06:20:47.047Z,21.23
2018-10-09T06:23:15.240Z,21.40
2018-10-09T06:25:43.409Z,22.30
2018-10-09T06:28:11.735Z,23.20
2018-10-09T06:30:40.873Z,22.40
2018-10-09T06:33:09.081Z,24.40
2018-10-09T06:35:37.265Z,24.00
2018-10-09T06:38:05.499Z,27.13
2018-10-09T06:40:33.778Z,24.37
2018-10-09T06:43:01.937Z,27.17
2018-10-09T06:45:30.120Z,23.57
2018-10-09T06:47:58.325Z,23.80
2018-10-09T06:50:26.629Z,24.13
2018-10-09T06:52:54.969Z,24.70
2018-10-09T06:55:23.147Z,22.60
2018-10-09T06:57:51.341Z,21.20
2018-10-09T07:00:19.589Z,23.27
2018-10-09T07:02:47.819Z,22.83
2018-10-09T07:05:15.987Z,22.37
2018-10-09T07:07:44.175Z,23.67
2018-10-09T07:10:12.350Z,22.87
2018-10-09T07:12:40.630Z,24.67
2018-10-09T07:15:08.964Z,23.77
2018-10-09T07:17:37.173Z,25.10
2018-10-09T07:20:05.353Z,25.03
2018-10-09T07:22:33.698Z,23.90
2018-10-09T07:25:01.877Z,21.70
2018-10-09T07:27:30.065Z,22.00
2018-10-09T07:29:58.268Z,22.63
2018-10-09T07:32:26.493Z,22.37
2018-10-09T07:34:54.769Z,21.27
2018-10-09T07:37:22.996Z,20.93
2018-10-09T07:39:51.130Z,20.33
2018-10-09T07:42:19.431Z,20.63
2018-10-09T07:44:48.665Z,21.57
2018-10-09T07:47:16.913Z,21.00
2018-10-09T07:49:45.109Z,20.60
2018-10-09T07:52:13.289Z,20.70
2018-10-09T07:54:41.641Z,22.03
2018-10-09T07:57:10.994Z,21.57
2018-10-09T07:59:39.206Z,21.17
2018-10-09T08:02:07.414Z,21.80
2018-10-09T08:04:35.794Z,21.43
2018-10-09T08:07:04.098Z,22.70
2018-10-09T08:09:32.797Z,21.60
2018-10-09T08:12:00.997Z,22.70
2018-10-09T08:14:29.174Z,23.87
2018-10-09T08:16:57.398Z,21.80
2018-10-09T08:19:26.433Z,22.37
2018-10-09T08:21:54.658Z,21.87
2018-10-09T08:24:22.886Z,22.23
2018-10-09T08:26:51.065Z,21.47
2018-10-09T08:29:19.257Z,21.90
2018-10-09T08:31:47.682Z,21.57
2018-10-09T08:34:15.850Z,21.03
2018-10-09T08:36:44.072Z,20.37
2018-10-09T08:39:12.340Z,21.53
2018-10-09T08:41:40.534Z,21.37
2018-10-09T08:44:08.743Z,21.63
2018-10-09T08:46:36.922Z,21.50
2018-10-09T08:49:05.202Z,20.47
2018-10-09T08:51:33.960Z,21.90
2018-10-09T08:54:02.833Z,21.37
2018-10-09T08:56:31.287Z,20.47
2018-10-09T08:58:59.582Z,20.67
2018-10-09T09:01:27.759Z,20.40
2018-10-09T09:03:56.825Z,21.00
2018-10-09T09:06:26.245Z,21.37
2018-10-09T09:08:55.089Z,18.98
2018-10-09T09:11:23.295Z,21.65
2018-10-09T09:13:51.529Z,21.27
2018-10-09T09:16:19.717Z,19.95
2018-10-09T09:18:48.326Z,20.55
2018-10-09T09:21:16.619Z,20.52
2018-10-09T09:23:44.818Z,20.08
2018-10-09T09:26:13.058Z,21.07
2018-10-09T09:28:42.342Z,20.92
2018-10-09T09:31:10.702Z,21.30
2018-10-09T09:33:38.953Z,21.85
2018-10-09T09:36:07.141Z,19.60
2018-10-09T09:38:35.357Z,22.82
2018-10-09T09:41:03.617Z,22.87
2018-10-09T09:43:32.217Z,22.95
2018-10-09T09:46:00.648Z,21.62
2018-10-09T09:48:28.749Z,22.13
2018-10-09T09:50:57.082Z,22.77
2018-10-09T09:53:25.329Z,20.50
2018-10-09T09:55:53.565Z,21.57
2018-10-09T09:58:21.850Z,21.33
2018-10-09T10:00:52.995Z,20.55
2018-10-09T10:03:21.221Z,21.15
2018-10-09T10:05:50.540Z,21.23
2018-10-09T10:08:19.230Z,20.12
2018-10-09T10:10:47.718Z,19.48
2018-10-09T10:13:15.995Z,20.92
2018-10-09T10:15:44.230Z,20.23
2018-10-09T10:18:12.437Z,21.05
2018-10-09T10:20:41.161Z,20.92
2018-10-09T10:23:10.644Z,19.17
2018-10-09T10:25:38.850Z,19.07
2018-10-09T10:28:07.768Z,18.17
2018-10-09T10:30:35.990Z,17.23
2018-10-09T10:33:04.423Z,18.62
2018-10-09T10:35:32.697Z,20.02
2018-10-09T10:38:00.977Z,20.17
2018-10-09T10:40:29.185Z,18.65
2018-10-09T10:42:57.522Z,19.65
2018-10-09T10:45:25.929Z,18.92
2018-10-09T10:47:54.204Z,18.85
2018-10-09T10:50:22.554Z,19.42
2018-10-09T10:52:51.214Z,19.12
2018-10-09T10:55:20.345Z,20.72
2018-10-09T10:57:48.605Z,19.90
2018-10-09T11:00:16.846Z,20.68
2018-10-09T11:02:45.507Z,19.77
2018-10-09T11:05:13.684Z,20.40
2018-10-09T11:07:42.073Z,19.75
2018-10-09T11:10:10.291Z,17.80
2018-10-09T11:12:38.507Z,18.15
2018-10-09T11:15:06.698Z,17.70
2018-10-09T11:17:34.910Z,18.12
2018-10-09T11:20:03.658Z,17.73
2018-10-09T11:22:31.886Z,16.80
2018-10-09T11:25:00.122Z,16.70
2018-10-09T11:27:28.347Z,16.75
2018-10-09T11:29:56.701Z,15.15
2018-10-09T11:32:25.202Z,15.95
2018-10-09T11:34:53.414Z,18.42
2018-10-09T11:37:21.633Z,18.25
2018-10-09T11:39:49.865Z,18.40
2018-10-09T11:42:18.411Z,18.90
2018-10-09T11:44:46.618Z,18.25
2018-10-09T11:47:14.844Z,16.93
2018-10-09T11:49:43.061Z,17.70
2018-10-09T11:52:11.729Z,18.85
2018-10-09T11:54:40.145Z,17.87
2018-10-09T11:57:08.384Z,17.85
2018-10-09T11:59:36.612Z,15.88
2018-10-09T12:02:04.853Z,18.65
2018-10-09T12:04:33.625Z,18.05
2018-10-09T12:07:01.895Z,16.73
2018-10-09T12:09:30.117Z,18.35
2018-10-09T12:11:58.351Z,17.42
2018-10-09T12:14:26.622Z,18.98
2018-10-09T12:16:54.869Z,17.70
2018-10-09T12:19:23.405Z,15.88
2018-10-09T12:21:51.599Z,16.62
2018-10-09T12:24:19.865Z,15.78
2018-10-09T12:26:48.157Z,15.35
2018-10-09T12:29:16.366Z,15.45
2018-10-09T12:31:44.729Z,15.88
2018-10-09T12:34:12.915Z,14.53
2018-10-09T12:36:41.805Z,15.28
2018-10-09T12:39:11.881Z,15.63
2018-10-09T12:41:40.554Z,15.28
2018-10-09T12:44:08.730Z,18.10
2018-10-09T12:46:37.025Z,15.95
2018-10-09T12:49:05.242Z,16.75
2018-10-09T12:51:33.581Z,16.48
2018-10-09T12:54:01.856Z,15.48
2018-10-09T12:56:30.086Z,16.40
2018-10-09T12:58:58.789Z,15.90
2018-10-09T13:01:27.070Z,14.30
2018-10-09T13:03:55.424Z,14.55
2018-10-09T13:06:23.605Z,15.43
2018-10-09T13:08:51.795Z,14.50
2018-10-09T13:11:19.963Z,15.70
2018-10-09T13:13:48.271Z,16.55
2018-10-09T13:16:16.497Z,14.93
2018-10-09T13:18:44.694Z,15.93
2018-10-09T13:21:12.928Z,14.13
2018-10-09T13:23:41.329Z,14.95
2018-10-09T13:26:09.539Z,14.25
2018-10-09T13:28:37.696Z,14.58
2018-10-09T13:31:05.893Z,15.50
2018-10-09T13:33:35.073Z,15.72
2018-10-09T13:36:03.825Z,16.23
2018-10-09T13:38:32.100Z,16.15
2018-10-09T13:41:00.353Z,15.50
2018-10-09T13:43:28.515Z,14.33
2018-10-09T13:45:56.813Z,13.97
2018-10-09T13:48:26.014Z,12.98
2018-10-09T13:50:54.334Z,11.75
2018-10-09T13:53:22.401Z,11.13
2018-10-09T13:55:50.559Z,10.87
2018-10-09T13:58:18.814Z,10.47
2018-10-09T14:00:47.322Z,10.60
2018-10-09T14:03:15.491Z,9.43
2018-10-09T14:05:43.686Z,10.80
2018-10-09T14:08:12.126Z,9.80
2018-10-09T14:10:40.315Z,10.10
2018-10-09T14:13:08.494Z,9.23
2018-10-09T14:15:36.685Z,9.53
2018-10-09T14:18:04.945Z,10.10
2018-10-09T14:20:33.269Z,10.08
2018-10-09T14:23:01.523Z,9.23
2018-10-09T14:25:29.665Z,9.37
2018-10-09T14:27:57.862Z,10.00
2018-10-09T14:30:26.147Z,11.33
2018-10-09T14:32:54.345Z,10.57
2018-10-09T14:35:22.553Z,9.93
2018-10-09T14:37:50.794Z,9.97
2018-10-09T14:40:19.103Z,11.00
2018-10-09T14:42:47.316Z,9.63
2018-10-09T14:45:15.614Z,9.67
2018-10-09T14:47:43.786Z,9.33
2018-10-09T14:50:12.811Z,8.43
2018-10-09T14:52:41.111Z,8.40
2018-10-09T14:55:09.323Z,8.23
2018-10-09T14:57:37.650Z,8.53
2018-10-09T15:00:06.517Z,7.80
2018-10-09T15:02:34.721Z,8.10
2018-10-09T15:05:03.029Z,14.03
2018-10-09T15:07:31.231Z,8.10
2018-10-09T15:09:59.432Z,7.80
2018-10-09T15:12:27.611Z,8.10
2018-10-09T15:14:56.153Z,7.40
2018-10-09T15:17:24.434Z,8.10
2018-10-09T15:19:53.039Z,7.90
2018-10-09T15:22:21.282Z,8.83
2018-10-09T15:24:49.598Z,7.40
2018-10-09T15:27:18.951Z,8.30
2018-10-09T15:29:47.564Z,8.60
2018-10-09T15:32:15.914Z,8.77
2018-10-09T15:34:44.105Z,8.50
2018-10-09T15:37:13.017Z,8.57
2018-10-09T15:39:41.431Z,9.00
2018-10-09T15:42:09.654Z,8.20
2018-10-09T15:44:37.820Z,9.40
2018-10-09T15:47:06.390Z,9.03
2018-10-09T15:49:34.689Z,8.53
2018-10-09T15:52:03.031Z,8.57
2018-10-09T15:54:31.290Z,9.57
2018-10-09T15:56:59.445Z,8.67
2018-10-09T15:59:27.670Z,9.27
2018-10-09T16:01:55.869Z,7.77
2018-10-09T16:04:24.203Z,8.33
2018-10-09T16:06:52.386Z,9.37
2018-10-09T16:09:20.546Z,8.60
2018-10-09T16:11:48.769Z,8.60
2018-10-09T16:14:17.170Z,9.20
2018-10-09T16:16:45.339Z,9.60
2018-10-09T16:19:13.496Z,8.93
2018-10-09T16:21:41.771Z,9.07
2018-10-09T16:24:10.478Z,8.40
2018-10-09T16:26:38.658Z,8.47
2018-10-09T16:29:06.818Z,8.77
2018-10-09T16:31:35.054Z,8.03
2018-10-09T16:34:03.377Z,8.20
2018-10-09T16:36:31.545Z,7.60
2018-10-09T16:38:59.677Z,8.67
2018-10-09T16:41:27.869Z,9.37
2018-10-09T16:43:56.137Z,9.33
2018-10-09T16:46:24.307Z,9.57
2018-10-09T16:48:52.454Z,9.77
2018-10-09T16:51:20.662Z,10.53
2018-10-09T16:53:49.017Z,9.77
2018-10-09T16:56:17.226Z,10.47
2018-10-09T16:58:45.394Z,9.93
2018-10-09T17:01:13.562Z,10.17
2018-10-09T17:03:41.822Z,10.40
2018-10-09T17:06:10.067Z,11.10
2018-10-09T17:08:38.277Z,11.73
2018-10-09T17:11:06.646Z,11.83
2018-10-09T17:13:34.933Z,12.33
2018-10-09T17:16:03.153Z,11.53
2018-10-09T17:18:31.341Z,13.63
2018-10-09T17:20:59.558Z,11.50
2018-10-09T17:23:27.766Z,12.03
2018-10-09T17:25:56.015Z,12.13
2018-10-09T17:28:24.280Z,12.33
2018-10-09T17:30:52.393Z,12.17
2018-10-09T17:33:20.650Z,12.37
2018-10-09T17:35:48.853Z,12.43
2018-10-09T17:38:17.152Z,13.30
2018-10-09T17:40:45.523Z,12.57
2018-10-09T17:43:13.674Z,13.13
2018-10-09T17:45:41.889Z,13.57
2018-10-09T17:48:10.081Z,13.67
2018-10-09T17:50:38.236Z,12.30
2018-10-09T17:53:06.839Z,12.70
2018-10-09T17:55:36.697Z,13.10
2018-10-09T17:58:05.030Z,13.37
2018-10-09T18:00:33.272Z,13.70
2018-10-09T18:03:01.446Z,14.37
2018-10-09T18:05:29.601Z,13.17
2018-10-09T18:07:58.016Z,14.03
2018-10-09T18:10:26.423Z,14.10
2018-10-09T18:12:54.666Z,14.30
2018-10-09T18:15:22.833Z,14.70
2018-10-09T18:17:51.017Z,14.43
2018-10-09T18:20:19.889Z,14.60
2018-10-09T18:22:48.969Z,13.73
2018-10-09T18:25:17.414Z,14.47
2018-10-09T18:27:45.599Z,13.90
2018-10-09T18:30:13.762Z,13.77
2018-10-09T18:32:42.256Z,15.67
2018-10-09T18:35:10.454Z,15.80
2018-10-09T18:37:38.631Z,15.13
2018-10-09T18:40:06.818Z,14.30
2018-10-09T18:42:35.221Z,14.60
2018-10-09T18:45:03.505Z,13.13
2018-10-09T18:47:37.005Z,14.47
2018-10-09T18:50:05.529Z,14.00
2018-10-09T18:52:33.763Z,13.97
2018-10-09T18:55:01.986Z,15.03
2018-10-09T18:57:30.155Z,14.17
2018-10-09T18:59:58.497Z,14.93
2018-10-09T19:02:26.929Z,13.50
2018-10-09T19:04:55.518Z,14.43
2018-10-09T19:07:23.745Z,14.67
2018-10-09T19:09:51.955Z,13.97
2018-10-09T19:12:20.118Z,14.57
2018-10-09T19:14:48.491Z,14.17
2018-10-09T19:17:16.691Z,15.80
2018-10-09T19:19:44.894Z,15.60
2018-10-09T19:22:13.265Z,17.50
2018-10-09T19:24:41.634Z,15.93
2018-10-09T19:27:09.854Z,17.30
2018-10-09T19:29:38.077Z,16.57
2018-10-09T19:32:06.272Z,16.40
2018-10-09T19:34:34.701Z,15.47
2018-10-09T19:37:03.173Z,16.60
2018-10-09T19:39:31.362Z,15.87
2018-10-09T19:41:59.520Z,16.20
2018-10-09T19:44:27.792Z,15.83
2018-10-09T19:46:56.029Z,15.93
2018-10-09T19:49:24.197Z,15.17
2018-10-09T19:51:52.381Z,16.00
2018-10-09T19:54:20.549Z,15.33
2018-10-09T19:56:48.921Z,14.70
2018-10-09T19:59:17.150Z,16.03
2018-10-09T20:01:45.298Z,16.43
2018-10-09T20:04:13.450Z,16.63
2018-10-09T20:06:41.761Z,16.50
2018-10-09T20:09:11.629Z,18.03
2018-10-09T20:11:39.961Z,16.73
2018-10-09T20:14:09.445Z,18.57
2018-10-09T20:16:37.586Z,18.20
2018-10-09T20:19:05.895Z,16.93
2018-10-09T20:21:34.164Z,18.33
2018-10-09T20:24:02.451Z,17.10
2018-10-09T20:26:30.635Z,16.90
2018-10-09T20:28:58.833Z,16.63
2018-10-09T20:31:27.622Z,16.83
2018-10-09T20:33:56.078Z,16.37
2018-10-09T20:36:24.274Z,16.37
2018-10-09T20:38:52.471Z,16.20
2018-10-09T20:41:20.759Z,17.63
2018-10-09T20:43:49.073Z,16.40
2018-10-09T20:46:17.365Z,16.03
2018-10-09T20:48:45.578Z,16.07
2018-10-09T20:51:13.868Z,16.13
2018-10-09T20:53:43.097Z,16.63
2018-10-09T20:56:11.441Z,16.30
2018-10-09T20:58:39.739Z,14.97
2018-10-09T21:01:07.974Z,16.17
2018-10-09T21:03:36.145Z,16.20
2018-10-09T21:06:04.405Z,16.03
2018-10-09T21:08:32.599Z,15.63
2018-10-09T21:11:00.815Z,15.77
2018-10-09T21:13:28.981Z,16.17
2018-10-09T21:15:57.230Z,16.70
2018-10-09T21:18:26.318Z,16.00
2018-10-09T21:20:54.493Z,16.67
2018-10-09T21:23:22.657Z,15.73
2018-10-09T21:25:50.837Z,16.40
2018-10-09T21:28:19.665Z,15.70
2018-10-09T21:30:48.389Z,16.70
2018-10-09T21:33:16.566Z,15.23
2018-10-09T21:35:44.735Z,17.10
2018-10-09T21:38:13.282Z,16.87
2018-10-09T21:40:41.557Z,16.10
2018-10-09T21:43:09.848Z,16.47
2018-10-09T21:45:38.009Z,15.90
2018-10-09T21:48:06.194Z,17.27
2018-10-09T21:50:35.416Z,16.43
2018-10-09T21:53:04.385Z,16.83
2018-10-09T21:55:32.690Z,17.57
2018-10-09T21:58:00.910Z,16.83
2018-10-09T22:00:29.113Z,17.80
2018-10-09T22:02:58.273Z,16.77
2018-10-09T22:05:26.549Z,17.60
2018-10-09T22:07:54.750Z,16.23
2018-10-09T22:10:22.917Z,16.87
2018-10-09T22:12:51.094Z,18.60
2018-10-09T22:15:19.589Z,17.73
2018-10-09T22:17:47.790Z,17.87
2018-10-09T22:20:15.948Z,17.97
2018-10-09T22:22:44.118Z,17.57
2018-10-09T22:25:12.356Z,18.07
2018-10-09T22:27:40.653Z,17.43
2018-10-09T22:30:08.823Z,16.50
2018-10-09T22:32:36.989Z,16.53
2018-10-09T22:35:05.290Z,16.67
2018-10-09T22:37:33.463Z,16.53
2018-10-09T22:40:01.644Z,17.33
2018-10-09T22:42:29.818Z,15.40
2018-10-09T22:44:57.996Z,16.53
2018-10-09T22:47:26.450Z,15.77
2018-10-09T22:49:54.596Z,15.90
2018-10-09T22:52:22.823Z,15.47
2018-10-09T22:54:50.977Z,15.60
2018-10-09T22:57:19.207Z,16.87
2018-10-09T22:59:47.483Z,16.50
2018-10-09T23:02:15.678Z,16.50
2018-10-09T23:04:43.863Z,16.70
2018-10-09T23:07:12.549Z,17.10
2018-10-09T23:09:40.811Z,17.47
2018-10-09T23:12:09.026Z,17.37
2018-10-09T23:14:37.227Z,18.17
2018-10-09T23:17:05.406Z,17.00
2018-10-09T23:19:33.711Z,17.43
2018-10-09T23:22:01.881Z,17.37
2018-10-09T23:24:30.057Z,17.90
2018-10-09T23:26:58.271Z,17.97
2018-10-09T23:29:27.341Z,16.63
2018-10-09T23:31:56.465Z,18.20
2018-10-09T23:34:24.639Z,18.03
2018-10-09T23:36:52.809Z,16.40
2018-10-09T23:39:20.949Z,17.23
2018-10-09T23:41:49.395Z,17.97
2018-10-09T23:44:17.617Z,18.20
2018-10-09T23:46:45.810Z,16.73
2018-10-09T23:49:13.948Z,17.97
2018-10-09T23:51:42.266Z,17.43
2018-10-09T23:54:10.493Z,18.83
2018-10-09T23:56:38.779Z,18.00
2018-10-09T23:59:07.404Z,16.90
